createdAt,value
2023-05-14T00:01:57.550Z,14.20
2023-05-14T00:04:24.154Z,14.85
2023-05-14T00:06:50.998Z,14.77
2023-05-14T00:09:17.526Z,14.13
2023-05-14T00:11:44.133Z,14.45
2023-05-14T00:14:10.614Z,15.45
2023-05-14T00:16:37.165Z,14.77
2023-05-14T00:19:03.964Z,15.20
2023-05-14T00:21:31.589Z,16.25
2023-05-14T00:23:58.427Z,14.85
2023-05-14T00:26:25.083Z,15.30
2023-05-14T00:28:51.640Z,16.75
2023-05-14T00:31:18.198Z,14.75
2023-05-14T00:33:44.777Z,15.88
2023-05-14T00:36:11.308Z,16.23
2023-05-14T00:38:37.783Z,15.00
2023-05-14T00:41:04.452Z,15.23
2023-05-14T00:43:33.127Z,15.82
2023-05-14T00:45:59.719Z,14.48
2023-05-14T00:48:26.261Z,16.17
2023-05-14T00:50:52.771Z,16.60
2023-05-14T00:53:19.756Z,14.57
2023-05-14T00:55:47.037Z,19.08
2023-05-14T00:58:14.286Z,16.30
2023-05-14T01:00:41.430Z,17.02
2023-05-14T01:03:08.724Z,16.33
2023-05-14T01:06:11.037Z,16.77
2023-05-14T01:09:14.840Z,16.15
2023-05-14T01:12:12.628Z,20.65
2023-05-14T01:15:05.339Z,17.73
2023-05-14T01:17:33.944Z,17.10
2023-05-14T01:20:00.696Z,17.92
2023-05-14T01:22:27.302Z,17.55
2023-05-14T01:24:53.845Z,17.92
2023-05-14T01:27:49.590Z,18.17
2023-05-14T01:30:26.365Z,17.80
2023-05-14T01:32:55.428Z,19.05
2023-05-14T01:35:28.716Z,19.55
2023-05-14T01:38:03.834Z,20.10
2023-05-14T01:40:31.952Z,18.15
2023-05-14T01:42:58.919Z,18.23
2023-05-14T01:45:25.762Z,18.65
2023-05-14T01:47:52.785Z,17.98
2023-05-14T01:50:19.606Z,18.50
2023-05-14T01:52:46.755Z,17.58
2023-05-14T01:55:13.261Z,17.48
2023-05-14T01:57:39.884Z,16.13
2023-05-14T02:00:07.097Z,16.30
2023-05-14T02:02:33.647Z,17.48
2023-05-14T02:05:00.223Z,17.33
2023-05-14T02:07:26.718Z,17.00
2023-05-14T02:09:53.216Z,17.13
2023-05-14T02:12:19.707Z,16.33
2023-05-14T02:14:46.248Z,16.15
2023-05-14T02:17:15.873Z,16.13
2023-05-14T02:19:42.364Z,16.48
2023-05-14T02:22:08.880Z,17.95
2023-05-14T02:24:35.355Z,16.70
2023-05-14T02:27:01.940Z,16.80
2023-05-14T02:29:28.509Z,16.42
2023-05-14T02:31:55.168Z,17.05
2023-05-14T02:34:21.746Z,16.02
2023-05-14T02:36:48.246Z,16.33
2023-05-14T02:39:14.703Z,16.75
2023-05-14T02:41:41.325Z,16.60
2023-05-14T02:44:07.769Z,17.60
2023-05-14T02:46:34.907Z,17.60
2023-05-14T02:49:01.839Z,17.90
2023-05-14T02:51:28.349Z,17.48
2023-05-14T02:53:54.814Z,17.27
2023-05-14T02:56:21.416Z,16.70
2023-05-14T02:58:48.031Z,16.83
2023-05-14T03:01:14.545Z,16.63
2023-05-14T03:03:41.571Z,16.80
2023-05-14T03:06:08.690Z,17.60
2023-05-14T03:08:35.216Z,16.83
2023-05-14T03:11:01.969Z,17.05
2023-05-14T03:13:28.592Z,17.80
2023-05-14T03:15:55.233Z,19.25
2023-05-14T03:18:21.716Z,18.00
2023-05-14T03:20:48.241Z,17.45
2023-05-14T03:23:15.084Z,18.02
2023-05-14T03:25:41.801Z,19.98
2023-05-14T03:28:08.366Z,19.65
2023-05-14T03:30:34.908Z,19.33
2023-05-14T03:33:01.521Z,19.13
2023-05-14T03:35:28.033Z,18.15
2023-05-14T03:38:03.769Z,18.48
2023-05-14T03:43:13.708Z,20.48
2023-05-14T03:45:40.451Z,20.42
2023-05-14T03:48:08.377Z,20.02
2023-05-14T03:50:35.077Z,19.10
2023-05-14T03:53:01.593Z,19.40
2023-05-14T03:55:28.150Z,16.77
2023-05-14T03:57:54.649Z,17.10
2023-05-14T04:00:21.605Z,17.55
2023-05-14T04:02:48.469Z,19.05
2023-05-14T04:05:15.351Z,17.13
2023-05-14T04:07:41.839Z,15.57
2023-05-14T04:10:08.865Z,15.98
2023-05-14T04:12:35.398Z,16.83
2023-05-14T04:15:02.043Z,16.48
2023-05-14T04:17:28.511Z,16.50
2023-05-14T04:19:55.205Z,16.60
2023-05-14T04:22:21.703Z,16.40
2023-05-14T04:24:48.201Z,16.35
2023-05-14T04:27:23.782Z,16.00
2023-05-14T04:29:50.719Z,15.93
2023-05-14T04:32:17.752Z,15.32
2023-05-14T04:34:44.344Z,16.70
2023-05-14T04:37:10.772Z,14.57
2023-05-14T04:39:38.357Z,15.23
2023-05-14T04:42:05.345Z,14.57
2023-05-14T04:44:31.921Z,14.23
2023-05-14T04:46:58.404Z,14.82
2023-05-14T04:49:24.946Z,13.73
2023-05-14T04:51:51.501Z,13.15
2023-05-14T04:54:17.993Z,14.73
2023-05-14T04:56:44.516Z,13.52
2023-05-14T04:59:11.079Z,14.75
2023-05-14T05:01:37.703Z,14.85
2023-05-14T05:04:04.524Z,14.77
2023-05-14T05:06:31.640Z,15.23
2023-05-14T05:08:59.062Z,14.73
2023-05-14T05:11:27.062Z,14.88
2023-05-14T05:13:53.599Z,14.95
2023-05-14T05:16:20.094Z,13.57
2023-05-14T05:18:46.713Z,14.07
2023-05-14T05:21:13.281Z,18.85
2023-05-14T05:23:39.817Z,17.85
2023-05-14T05:26:06.401Z,15.77
2023-05-14T05:28:32.860Z,15.10
2023-05-14T05:30:59.383Z,18.08
2023-05-14T05:33:26.044Z,14.23
2023-05-14T05:35:52.742Z,13.60
2023-05-14T05:38:19.351Z,14.25
2023-05-14T05:40:45.903Z,14.25
2023-05-14T05:43:13.870Z,20.52
2023-05-14T05:45:40.856Z,17.25
2023-05-14T05:48:07.476Z,15.45
2023-05-14T05:50:34.114Z,14.95
2023-05-14T05:53:00.767Z,15.68
2023-05-14T05:55:27.355Z,15.35
2023-05-14T05:57:53.965Z,14.68
2023-05-14T06:00:20.967Z,14.45
2023-05-14T06:02:47.736Z,14.35
2023-05-14T06:05:14.447Z,17.33
2023-05-14T06:07:41.125Z,16.95
2023-05-14T06:10:08.172Z,15.80
2023-05-14T06:12:34.738Z,15.27
2023-05-14T06:15:01.275Z,16.17
2023-05-14T06:17:27.794Z,15.75
2023-05-14T06:19:54.303Z,14.82
2023-05-14T06:22:20.795Z,14.55
2023-05-14T06:24:51.740Z,14.48
2023-05-14T06:27:18.231Z,15.05
2023-05-14T06:29:44.733Z,15.10
2023-05-14T06:32:14.264Z,14.95
2023-05-14T06:34:41.973Z,15.13
2023-05-14T06:37:09.676Z,14.25
2023-05-14T06:39:36.977Z,12.88
2023-05-14T06:42:03.881Z,13.25
2023-05-14T06:44:30.420Z,11.48
2023-05-14T06:46:57.234Z,13.38
2023-05-14T06:49:23.796Z,12.52
2023-05-14T06:51:50.445Z,11.30
2023-05-14T06:54:17.061Z,12.57
2023-05-14T06:56:43.602Z,11.25
2023-05-14T06:59:10.173Z,11.20
2023-05-14T07:01:36.709Z,11.13
2023-05-14T07:04:03.506Z,11.18
2023-05-14T07:06:30.089Z,13.10
2023-05-14T07:08:56.628Z,10.57
2023-05-14T07:11:23.196Z,10.02
2023-05-14T07:13:49.678Z,10.63
2023-05-14T07:16:16.344Z,10.07
2023-05-14T07:18:44.320Z,9.75
2023-05-14T07:21:11.463Z,10.80
2023-05-14T07:23:40.854Z,9.30
2023-05-14T07:26:07.963Z,10.73
2023-05-14T07:28:34.785Z,9.50
2023-05-14T07:31:01.337Z,9.68
2023-05-14T07:33:28.176Z,8.23
2023-05-14T07:35:54.722Z,9.00
2023-05-14T07:38:21.309Z,9.63
2023-05-14T07:40:47.835Z,9.30
2023-05-14T07:43:14.559Z,8.80
2023-05-14T07:45:41.198Z,7.88
2023-05-14T07:48:07.883Z,7.18
2023-05-14T07:50:34.635Z,8.07
2023-05-14T07:53:01.234Z,9.23
2023-05-14T07:55:27.831Z,10.05
2023-05-14T07:57:54.424Z,8.32
2023-05-14T08:00:21.320Z,8.68
2023-05-14T08:02:49.115Z,7.78
2023-05-14T08:05:15.944Z,8.05
2023-05-14T08:07:42.544Z,7.45
2023-05-14T08:10:09.333Z,6.50
2023-05-14T08:12:35.978Z,6.78
2023-05-14T08:15:02.843Z,7.32
2023-05-14T08:17:30.033Z,7.00
2023-05-14T08:19:56.553Z,6.90
2023-05-14T08:22:23.175Z,6.18
2023-05-14T08:24:49.955Z,6.50
2023-05-14T08:27:19.278Z,6.32
2023-05-14T08:29:45.804Z,6.50
2023-05-14T08:32:22.646Z,6.63
2023-05-14T08:34:50.796Z,6.10
2023-05-14T08:37:17.424Z,5.60
2023-05-14T08:39:44.023Z,5.63
2023-05-14T08:42:12.802Z,5.65
2023-05-14T08:44:45.902Z,6.32
2023-05-14T08:47:16.180Z,5.90
2023-05-14T08:49:44.948Z,5.93
2023-05-14T08:52:12.103Z,6.97
2023-05-14T08:54:40.107Z,6.10
2023-05-14T08:57:10.043Z,8.77
2023-05-14T08:59:36.772Z,5.97
2023-05-14T09:02:06.379Z,5.90
2023-05-14T09:04:33.751Z,6.07
2023-05-14T09:07:02.132Z,5.90
2023-05-14T09:09:28.812Z,6.18
2023-05-14T09:11:55.323Z,6.10
2023-05-14T09:14:22.549Z,5.93
2023-05-14T09:16:50.616Z,5.25
2023-05-14T09:19:20.954Z,6.50
2023-05-14T09:21:49.123Z,6.35
2023-05-14T09:24:24.014Z,5.80
2023-05-14T09:26:56.330Z,6.15
2023-05-14T09:29:29.895Z,6.13
2023-05-14T09:31:58.148Z,6.45
2023-05-14T09:34:31.379Z,5.75
2023-05-14T09:37:01.393Z,5.90
2023-05-14T09:39:28.694Z,5.80
2023-05-14T09:41:56.066Z,5.97
2023-05-14T09:44:23.468Z,5.70
2023-05-14T09:46:50.850Z,5.97
2023-05-14T09:49:17.845Z,6.05
2023-05-14T09:51:44.577Z,5.97
2023-05-14T09:54:11.132Z,5.13
2023-05-14T09:56:39.496Z,5.22
2023-05-14T09:59:06.049Z,5.90
2023-05-14T10:01:35.558Z,5.40
2023-05-14T10:04:07.662Z,5.38
2023-05-14T10:06:38.036Z,5.32
2023-05-14T10:09:08.734Z,6.20
2023-05-14T10:14:09.092Z,5.97
2023-05-14T10:16:38.285Z,5.88
2023-05-14T10:19:09.889Z,6.30
2023-05-14T10:21:37.856Z,5.60
2023-05-14T10:24:05.684Z,5.88
2023-05-14T10:26:32.988Z,5.50
2023-05-14T10:28:59.821Z,5.68
2023-05-14T10:31:46.731Z,5.63
2023-05-14T10:34:41.598Z,6.45
2023-05-14T10:37:18.324Z,5.72
2023-05-14T10:39:51.290Z,5.50
2023-05-14T10:42:17.801Z,5.38
2023-05-14T10:44:54.366Z,5.57
2023-05-14T10:47:21.526Z,5.90
2023-05-14T10:49:52.991Z,6.32
2023-05-14T10:52:19.762Z,5.90
2023-05-14T10:55:02.652Z,6.43
2023-05-14T10:57:31.994Z,6.32
2023-05-14T11:00:00.422Z,6.13
2023-05-14T11:02:37.321Z,6.07
2023-05-14T11:05:09.106Z,6.50
2023-05-14T11:07:38.087Z,6.10
2023-05-14T11:10:05.940Z,5.75
2023-05-14T11:12:37.037Z,5.97
2023-05-14T11:15:06.953Z,5.80
2023-05-14T11:17:35.360Z,6.18
2023-05-14T11:20:02.475Z,5.20
2023-05-14T11:22:29.178Z,6.40
2023-05-14T11:24:55.736Z,6.25
2023-05-14T11:27:23.969Z,6.45
2023-05-14T11:29:50.966Z,6.40
2023-05-14T11:32:18.298Z,6.70
2023-05-14T11:34:45.847Z,6.40
2023-05-14T11:37:14.420Z,6.15
2023-05-14T11:39:47.536Z,6.30
2023-05-14T11:42:16.742Z,5.85
2023-05-14T11:44:44.554Z,6.00
2023-05-14T11:47:11.588Z,6.00
2023-05-14T11:49:38.208Z,6.20
2023-05-14T11:52:06.822Z,6.35
2023-05-14T11:54:34.676Z,6.70
2023-05-14T11:57:13.371Z,6.38
2023-05-14T11:59:40.230Z,6.30
2023-05-14T12:02:10.603Z,6.32
2023-05-14T12:04:37.377Z,6.50
2023-05-14T12:07:15.881Z,6.18
2023-05-14T12:09:50.819Z,5.72
2023-05-14T12:12:21.810Z,6.38
2023-05-14T12:14:49.710Z,8.75
2023-05-14T12:17:21.215Z,5.53
2023-05-14T12:19:49.676Z,5.50
2023-05-14T12:22:21.087Z,5.68
2023-05-14T12:24:55.067Z,5.97
2023-05-14T12:27:28.536Z,5.90
2023-05-14T12:30:20.728Z,6.85
2023-05-14T12:32:51.632Z,5.80
2023-05-14T12:35:18.391Z,5.53
2023-05-14T12:37:44.995Z,5.30
2023-05-14T12:40:12.042Z,6.25
2023-05-14T12:42:38.636Z,6.50
2023-05-14T12:45:08.007Z,5.78
2023-05-14T12:47:35.303Z,5.77
2023-05-14T12:50:02.429Z,5.80
2023-05-14T12:52:37.512Z,5.60
2023-05-14T12:55:06.928Z,5.88
2023-05-14T12:57:35.263Z,5.90
2023-05-14T13:00:02.442Z,5.72
2023-05-14T13:02:29.107Z,5.70
2023-05-14T13:04:55.679Z,5.80
2023-05-14T13:07:22.210Z,6.00
2023-05-14T13:09:48.716Z,6.03
2023-05-14T13:12:15.585Z,5.78
2023-05-14T13:14:42.114Z,5.32
2023-05-14T13:17:08.727Z,5.60
2023-05-14T13:19:35.314Z,5.72
2023-05-14T13:22:01.884Z,5.35
2023-05-14T13:24:28.427Z,5.68
2023-05-14T13:26:54.941Z,4.85
2023-05-14T13:29:21.400Z,5.43
2023-05-14T13:31:47.984Z,4.70
2023-05-14T13:34:14.847Z,4.75
2023-05-14T13:36:43.621Z,5.07
2023-05-14T13:39:13.566Z,5.15
2023-05-14T13:41:41.087Z,5.20
2023-05-14T13:44:07.983Z,4.88
2023-05-14T13:46:35.031Z,4.97
2023-05-14T13:49:01.813Z,4.50
2023-05-14T13:51:28.378Z,5.43
2023-05-14T13:56:21.621Z,5.50
2023-05-14T13:58:49.239Z,4.70
2023-05-14T14:01:15.760Z,8.70
2023-05-14T14:03:42.350Z,5.05
2023-05-14T14:06:08.877Z,5.03
2023-05-14T14:08:35.405Z,4.53
2023-05-14T14:11:01.940Z,4.78
2023-05-14T14:13:29.537Z,4.43
2023-05-14T14:15:56.131Z,4.97
2023-05-14T14:18:22.684Z,5.00
2023-05-14T14:20:49.503Z,5.38
2023-05-14T14:23:16.090Z,5.70
2023-05-14T14:25:42.824Z,5.65
2023-05-14T14:28:09.439Z,5.32
2023-05-14T14:30:36.004Z,4.82
2023-05-14T14:33:03.013Z,4.88
2023-05-14T14:35:30.661Z,5.50
2023-05-14T14:37:57.187Z,5.10
2023-05-14T14:40:24.089Z,5.40
2023-05-14T14:42:50.776Z,5.43
2023-05-14T14:45:17.612Z,5.25
2023-05-14T14:47:46.104Z,5.13
2023-05-14T14:50:13.375Z,5.35
2023-05-14T14:52:40.992Z,5.30
2023-05-14T14:55:07.883Z,5.65
2023-05-14T14:57:34.434Z,5.20
2023-05-14T15:00:02.499Z,5.43
2023-05-14T15:02:29.390Z,5.20
2023-05-14T15:04:56.083Z,5.22
2023-05-14T15:07:22.692Z,4.88
2023-05-14T15:09:49.266Z,4.70
2023-05-14T15:12:17.073Z,5.43
2023-05-14T15:14:43.613Z,5.45
2023-05-14T15:17:10.522Z,4.80
2023-05-14T15:19:37.205Z,4.88
2023-05-14T15:22:04.279Z,4.28
2023-05-14T15:24:30.802Z,4.88
2023-05-14T15:26:57.373Z,4.60
2023-05-14T15:29:23.889Z,5.55
2023-05-14T15:31:50.426Z,5.43
2023-05-14T15:34:18.358Z,5.05
2023-05-14T15:36:44.943Z,4.90
2023-05-14T15:39:11.465Z,5.63
2023-05-14T15:41:37.960Z,5.25
2023-05-14T15:44:04.711Z,7.75
2023-05-14T15:46:31.404Z,7.03
2023-05-14T15:48:58.246Z,6.75
2023-05-14T15:51:24.966Z,6.43
2023-05-14T15:53:53.528Z,5.20
2023-05-14T15:56:20.848Z,6.57
2023-05-14T15:58:47.348Z,8.23
2023-05-14T16:01:13.955Z,6.45
2023-05-14T16:03:40.735Z,5.55
2023-05-14T16:06:07.517Z,5.38
2023-05-14T16:08:34.017Z,5.40
2023-05-14T16:11:00.525Z,5.68
2023-05-14T16:13:27.189Z,6.43
2023-05-14T16:15:54.358Z,5.82
2023-05-14T16:18:20.946Z,5.47
2023-05-14T16:20:47.522Z,5.40
2023-05-14T16:23:14.173Z,5.25
2023-05-14T16:25:40.734Z,5.05
2023-05-14T16:28:07.998Z,5.25
2023-05-14T16:30:34.516Z,5.18
2023-05-14T16:33:01.323Z,5.63
2023-05-14T16:35:27.900Z,6.20
2023-05-14T16:37:54.536Z,6.70
2023-05-14T16:40:23.370Z,6.47
2023-05-14T16:42:51.113Z,5.00
2023-05-14T16:45:18.062Z,5.93
2023-05-14T16:47:44.678Z,5.45
2023-05-14T16:50:11.687Z,6.25
2023-05-14T16:52:38.306Z,5.40
2023-05-14T16:55:05.351Z,6.22
2023-05-14T16:57:32.099Z,5.70
2023-05-14T16:59:58.624Z,6.63
2023-05-14T17:02:25.613Z,5.80
2023-05-14T17:04:54.242Z,5.70
2023-05-14T17:07:20.872Z,5.80
2023-05-14T17:09:47.395Z,5.78
2023-05-14T17:12:14.153Z,5.93
2023-05-14T17:14:40.906Z,5.72
2023-05-14T17:17:07.547Z,5.68
2023-05-14T17:19:34.274Z,5.72
2023-05-14T17:22:00.919Z,5.80
2023-05-14T17:24:27.497Z,6.68
2023-05-14T17:26:54.013Z,7.20
2023-05-14T17:29:20.638Z,6.10
2023-05-14T17:31:48.384Z,6.18
2023-05-14T17:34:14.987Z,6.22
2023-05-14T17:36:41.509Z,6.53
2023-05-14T17:39:08.177Z,7.40
2023-05-14T17:41:34.900Z,6.65
2023-05-14T17:44:01.495Z,6.25
2023-05-14T17:46:28.095Z,6.60
2023-05-14T17:48:54.640Z,6.78
2023-05-14T17:51:21.162Z,6.15
2023-05-14T17:53:47.745Z,6.15
2023-05-14T17:56:15.499Z,6.22
2023-05-14T17:58:42.090Z,6.28
2023-05-14T18:01:08.736Z,5.50
2023-05-14T18:03:35.557Z,6.22
2023-05-14T18:06:02.163Z,5.60
2023-05-14T18:08:28.645Z,5.65
2023-05-14T18:10:55.173Z,6.10
2023-05-14T18:13:21.706Z,5.80
2023-05-14T18:15:48.329Z,5.43
2023-05-14T18:18:17.208Z,5.82
2023-05-14T18:20:43.777Z,6.47
2023-05-14T18:23:10.342Z,6.88
2023-05-14T18:25:36.851Z,7.00
2023-05-14T18:28:03.450Z,6.63
2023-05-14T18:30:30.024Z,6.65
2023-05-14T18:32:56.540Z,6.60
2023-05-14T18:35:23.066Z,6.53
2023-05-14T18:37:49.599Z,6.55
2023-05-14T18:40:18.486Z,6.70
2023-05-14T18:42:45.579Z,7.10
2023-05-14T18:45:12.435Z,6.43
2023-05-14T18:47:39.961Z,6.28
2023-05-14T18:50:07.727Z,6.28
2023-05-14T18:52:34.608Z,8.15
2023-05-14T18:55:01.705Z,7.68
2023-05-14T18:57:32.896Z,6.78
2023-05-14T19:00:03.106Z,6.32
2023-05-14T19:02:29.825Z,6.60
2023-05-14T19:04:56.694Z,6.45
2023-05-14T19:07:23.315Z,6.15
2023-05-14T19:09:49.817Z,6.90
2023-05-14T19:12:16.510Z,6.53
2023-05-14T19:14:43.041Z,5.97
2023-05-14T19:17:09.812Z,6.70
2023-05-14T19:19:36.657Z,6.68
2023-05-14T19:22:03.243Z,6.88
2023-05-14T19:24:30.265Z,6.35
2023-05-14T19:26:57.013Z,6.03
2023-05-14T19:29:23.710Z,6.25
2023-05-14T19:31:51.861Z,6.65
2023-05-14T19:34:18.447Z,7.32
2023-05-14T19:36:45.393Z,10.55
2023-05-14T19:39:12.053Z,8.93
2023-05-14T19:41:38.661Z,6.53
2023-05-14T19:44:05.258Z,7.10
2023-05-14T19:46:31.924Z,6.88
2023-05-14T19:48:58.494Z,6.57
2023-05-14T19:51:25.554Z,6.93
2023-05-14T19:53:52.276Z,6.43
2023-05-14T19:56:18.821Z,6.70
2023-05-14T19:58:45.411Z,6.40
2023-05-14T20:01:12.115Z,6.60
2023-05-14T20:03:39.031Z,6.45
2023-05-14T20:06:07.018Z,6.25
2023-05-14T20:08:33.696Z,6.55
2023-05-14T20:11:00.408Z,6.80
2023-05-14T20:13:26.964Z,6.97
2023-05-14T20:15:55.189Z,7.32
2023-05-14T20:18:21.949Z,7.03
2023-05-14T20:20:49.094Z,8.40
2023-05-14T20:23:15.742Z,7.38
2023-05-14T20:25:43.078Z,7.20
2023-05-14T20:28:10.149Z,6.95
2023-05-14T20:30:36.765Z,6.72
2023-05-14T20:33:04.147Z,6.70
2023-05-14T20:35:31.150Z,6.88
2023-05-14T20:37:57.665Z,7.10
2023-05-14T20:40:24.771Z,7.07
2023-05-14T20:42:52.149Z,6.75
2023-05-14T20:45:18.988Z,6.80
2023-05-14T20:47:45.689Z,7.32
2023-05-14T20:50:13.671Z,6.95
2023-05-14T20:52:40.519Z,7.22
2023-05-14T20:55:08.014Z,6.28
2023-05-14T20:57:34.566Z,7.07
2023-05-14T21:00:02.280Z,7.22
2023-05-14T21:02:28.945Z,7.65
2023-05-14T21:04:55.729Z,7.68
2023-05-14T21:07:22.311Z,7.65
2023-05-14T21:09:52.351Z,7.80
2023-05-14T21:12:19.420Z,7.90
2023-05-14T21:14:45.921Z,7.82
2023-05-14T21:17:12.589Z,8.80
2023-05-14T21:19:39.162Z,7.30
2023-05-14T21:22:06.792Z,8.10
2023-05-14T21:24:33.372Z,6.70
2023-05-14T21:27:00.444Z,7.20
2023-05-14T21:29:26.946Z,7.60
2023-05-14T21:31:53.500Z,6.63
2023-05-14T21:34:20.391Z,7.43
2023-05-14T21:36:47.246Z,7.40
2023-05-14T21:39:13.984Z,8.55
2023-05-14T21:41:40.553Z,8.25
2023-05-14T21:44:07.022Z,7.78
2023-05-14T21:46:33.815Z,7.90
2023-05-14T21:49:00.570Z,8.25
2023-05-14T21:51:27.206Z,7.25
2023-05-14T21:53:53.886Z,8.32
2023-05-14T21:56:21.077Z,8.18
2023-05-14T21:58:47.614Z,7.88
2023-05-14T22:01:14.326Z,7.38
2023-05-14T22:03:41.454Z,7.07
2023-05-14T22:06:07.995Z,7.90
2023-05-14T22:08:34.600Z,7.50
2023-05-14T22:11:01.210Z,8.55
2023-05-14T22:13:27.687Z,8.02
2023-05-14T22:16:01.419Z,8.32
2023-05-14T22:18:36.630Z,7.68
2023-05-14T22:21:03.696Z,8.40
2023-05-14T22:23:30.252Z,7.50
2023-05-14T22:25:57.536Z,8.18
2023-05-14T22:28:24.202Z,7.85
2023-05-14T22:30:50.684Z,7.95
2023-05-14T22:33:19.287Z,7.60
2023-05-14T22:35:45.834Z,8.63
2023-05-14T22:38:13.194Z,7.88
2023-05-14T22:40:39.749Z,7.97
2023-05-14T22:43:06.254Z,8.10
2023-05-14T22:45:32.712Z,8.15
2023-05-14T22:47:59.360Z,8.13
2023-05-14T22:50:26.219Z,7.78
2023-05-14T22:52:52.734Z,7.68
2023-05-14T22:55:19.320Z,8.15
2023-05-14T22:57:45.810Z,8.52
2023-05-14T23:00:13.072Z,8.52
2023-05-14T23:02:39.671Z,8.57
2023-05-14T23:05:07.802Z,10.45
2023-05-14T23:07:34.831Z,10.13
2023-05-14T23:10:02.856Z,10.10
2023-05-14T23:12:29.506Z,11.98
2023-05-14T23:14:56.079Z,10.60
2023-05-14T23:17:22.727Z,9.63
2023-05-14T23:19:49.428Z,9.45
2023-05-14T23:22:16.096Z,13.93
2023-05-14T23:24:42.633Z,11.38
2023-05-14T23:27:13.400Z,10.18
2023-05-14T23:32:06.968Z,10.55
2023-05-14T23:34:33.638Z,9.75
2023-05-14T23:37:00.280Z,10.43
2023-05-14T23:39:27.882Z,9.90
2023-05-14T23:41:54.331Z,9.95
2023-05-14T23:44:20.868Z,10.75
2023-05-14T23:46:47.520Z,10.77
2023-05-14T23:49:14.182Z,10.45
2023-05-14T23:51:40.717Z,9.73
2023-05-14T23:54:07.298Z,11.10
2023-05-14T23:56:34.330Z,9.85
2023-05-14T23:59:00.939Z,10.07
